createdAt,value
2022-10-25T00:00:33.519Z,97.40
2022-10-25T00:01:33.754Z,98.11
2022-10-25T00:02:34.461Z,97.80
2022-10-25T00:03:34.836Z,97.50
2022-10-25T00:04:34.225Z,98.11
2022-10-25T00:05:34.378Z,97.91
2022-10-25T00:06:35.338Z,98.16
2022-10-25T00:07:34.737Z,97.60
2022-10-25T00:08:34.866Z,98.11
2022-10-25T00:09:35.046Z,98.11
2022-10-25T00:10:35.198Z,98.11
2022-10-25T00:11:36.342Z,98.16
2022-10-25T00:12:35.633Z,98.72
2022-10-25T00:13:35.814Z,98.52
2022-10-25T00:14:35.957Z,98.82
2022-10-25T00:15:36.842Z,98.01
2022-10-25T00:16:36.326Z,98.05
2022-10-25T00:17:36.439Z,97.96
2022-10-25T00:18:36.573Z,97.91
2022-10-25T00:20:10.111Z,98.21
2022-10-25T00:20:37.378Z,98.01
2022-10-25T00:21:37.005Z,97.91
2022-10-25T00:22:37.878Z,97.91
2022-10-25T00:23:37.336Z,98.01
2022-10-25T00:24:37.473Z,97.96
2022-10-25T00:25:37.613Z,97.71
2022-10-25T00:26:38.379Z,98.05
2022-10-25T00:27:37.967Z,97.50
2022-10-25T00:28:38.882Z,97.85
2022-10-25T00:29:38.270Z,97.75
2022-10-25T00:30:38.404Z,97.85
2022-10-25T00:31:38.533Z,97.40
2022-10-25T00:32:38.705Z,98.01
2022-10-25T00:33:38.829Z,97.65
2022-10-25T00:34:38.998Z,98.26
2022-10-25T00:35:39.122Z,98.05
2022-10-25T00:36:39.256Z,97.91
2022-10-25T00:37:39.449Z,97.80
2022-10-25T00:38:39.627Z,97.85
2022-10-25T00:39:39.901Z,97.60
2022-10-25T00:40:39.933Z,98.11
2022-10-25T00:41:40.076Z,97.85
2022-10-25T00:42:40.224Z,98.01
2022-10-25T00:43:40.356Z,97.65
2022-10-25T00:44:40.506Z,98.01
2022-10-25T00:45:40.655Z,97.80
2022-10-25T00:46:40.800Z,97.09
2022-10-25T00:47:40.956Z,97.60
2022-10-25T00:48:41.886Z,97.65
2022-10-25T00:49:41.259Z,97.44
2022-10-25T00:50:41.421Z,97.60
2022-10-25T00:51:41.566Z,97.60
2022-10-25T00:52:41.714Z,96.79
2022-10-25T00:53:41.866Z,96.69
2022-10-25T00:54:42.027Z,96.79
2022-10-25T00:55:42.168Z,96.89
2022-10-25T00:56:42.890Z,96.59
2022-10-25T00:57:42.549Z,96.99
2022-10-25T00:58:42.681Z,97.40
2022-10-25T00:59:42.832Z,96.28
2022-10-25T01:00:43.002Z,96.48
2022-10-25T01:01:44.009Z,96.89
2022-10-25T01:02:43.440Z,96.48
2022-10-25T01:03:44.396Z,96.48
2022-10-25T01:04:43.778Z,96.28
2022-10-25T01:05:43.916Z,96.08
2022-10-25T01:06:45.048Z,96.08
2022-10-25T01:07:44.463Z,96.59
2022-10-25T01:08:44.490Z,96.48
2022-10-25T01:09:44.661Z,95.98
2022-10-25T01:10:44.809Z,96.18
2022-10-25T01:11:45.893Z,96.18
2022-10-25T01:12:47.456Z,95.57
2022-10-25T01:13:46.895Z,96.48
2022-10-25T01:14:45.529Z,96.38
2022-10-25T01:15:45.686Z,96.18
2022-10-25T01:16:45.820Z,96.18
2022-10-25T01:17:45.976Z,95.98
2022-10-25T01:18:46.142Z,95.47
2022-10-25T01:19:46.320Z,95.57
2022-10-25T01:20:47.396Z,96.28
2022-10-25T01:21:46.655Z,96.28
2022-10-25T01:22:47.076Z,96.08
2022-10-25T01:23:47.020Z,95.87
2022-10-25T01:24:47.202Z,95.98
2022-10-25T01:25:48.363Z,96.43
2022-10-25T01:26:48.397Z,96.08
2022-10-25T01:27:47.690Z,95.72
2022-10-25T01:28:47.843Z,95.47
2022-10-25T01:29:48.002Z,95.72
2022-10-25T01:30:48.174Z,96.23
2022-10-25T01:31:48.330Z,96.33
2022-10-25T01:32:48.706Z,95.87
2022-10-25T01:33:49.411Z,95.82
2022-10-25T01:34:48.785Z,95.87
2022-10-25T01:35:48.940Z,96.18
2022-10-25T01:36:49.921Z,96.12
2022-10-25T01:37:49.903Z,96.12
2022-10-25T01:38:49.523Z,96.08
2022-10-25T01:39:50.412Z,95.87
2022-10-25T01:40:49.781Z,96.12
2022-10-25T01:41:49.927Z,96.18
2022-10-25T01:42:50.046Z,95.26
2022-10-25T01:43:50.176Z,96.33
2022-10-25T01:44:50.902Z,96.18
2022-10-25T01:45:50.528Z,96.38
2022-10-25T01:46:50.918Z,95.87
2022-10-25T01:47:50.810Z,96.23
2022-10-25T01:48:50.956Z,96.33
2022-10-25T01:49:51.434Z,96.48
2022-10-25T01:50:51.899Z,96.83
2022-10-25T01:51:51.538Z,96.59
2022-10-25T01:52:51.768Z,96.38
2022-10-25T01:53:52.901Z,96.69
2022-10-25T01:54:52.128Z,96.73
2022-10-25T01:55:52.904Z,96.38
2022-10-25T01:56:52.414Z,96.59
2022-10-25T01:57:53.412Z,96.79
2022-10-25T01:58:52.803Z,96.89
2022-10-25T01:59:52.914Z,96.48
2022-10-25T02:00:54.002Z,97.09
2022-10-25T02:01:53.285Z,97.09
2022-10-25T02:02:53.909Z,96.53
2022-10-25T02:03:53.643Z,96.94
2022-10-25T02:04:53.883Z,97.34
2022-10-25T02:05:54.004Z,97.04
2022-10-25T02:06:54.155Z,97.20
2022-10-25T02:07:54.416Z,96.79
2022-10-25T02:08:54.515Z,97.04
2022-10-25T02:09:54.831Z,97.09
2022-10-25T02:10:54.888Z,97.09
2022-10-25T02:11:54.999Z,96.63
2022-10-25T02:12:55.914Z,96.33
2022-10-25T02:13:55.916Z,96.83
2022-10-25T02:14:55.535Z,96.53
2022-10-25T02:15:55.792Z,96.59
2022-10-25T02:16:56.911Z,95.92
2022-10-25T02:18:56.260Z,96.38
2022-10-25T02:19:56.409Z,96.38
2022-10-25T02:20:56.561Z,96.73
2022-10-25T02:21:56.696Z,96.89
2022-10-25T02:22:56.875Z,96.48
2022-10-25T02:23:57.015Z,96.59
2022-10-25T02:24:57.943Z,96.43
2022-10-25T02:25:57.306Z,96.43
2022-10-25T02:26:57.440Z,96.59
2022-10-25T02:27:57.608Z,96.59
2022-10-25T02:28:57.739Z,96.83
2022-10-25T02:29:57.872Z,96.94
2022-10-25T02:30:58.003Z,96.94
2022-10-25T02:31:58.166Z,97.75
2022-10-25T02:32:58.304Z,97.85
2022-10-25T02:33:58.436Z,98.26
2022-10-25T02:34:59.501Z,97.96
2022-10-25T02:35:58.781Z,98.26
2022-10-25T02:36:58.934Z,98.56
2022-10-25T02:37:59.089Z,97.85
2022-10-25T02:38:59.949Z,98.26
2022-10-25T02:39:59.450Z,98.36
2022-10-25T02:40:59.593Z,98.36
2022-10-25T02:41:59.763Z,98.86
2022-10-25T02:42:59.914Z,97.69
2022-10-25T02:44:00.961Z,97.49
2022-10-25T02:45:00.199Z,98.41
2022-10-25T02:46:00.345Z,98.26
2022-10-25T02:47:00.532Z,97.85
2022-10-25T02:48:00.681Z,97.85
2022-10-25T02:49:01.452Z,97.85
2022-10-25T02:50:01.956Z,97.49
2022-10-25T02:51:01.086Z,97.80
2022-10-25T02:52:01.248Z,98.05
2022-10-25T02:53:01.954Z,97.96
2022-10-25T02:54:01.565Z,98.20
2022-10-25T02:55:01.703Z,97.96
2022-10-25T02:56:01.842Z,98.16
2022-10-25T02:57:01.983Z,98.16
2022-10-25T02:58:02.159Z,98.00
2022-10-25T02:59:02.953Z,98.30
2022-10-25T03:00:03.045Z,97.85
2022-10-25T03:01:03.554Z,98.05
2022-10-25T03:02:02.825Z,97.65
2022-10-25T03:03:03.025Z,97.65
2022-10-25T03:04:03.164Z,97.75
2022-10-25T03:05:03.324Z,98.30
2022-10-25T03:06:03.972Z,97.44
2022-10-25T03:07:03.968Z,97.75
2022-10-25T03:08:03.856Z,97.85
2022-10-25T03:09:04.960Z,97.65
2022-10-25T03:10:04.210Z,97.85
2022-10-25T03:11:04.398Z,97.85
2022-10-25T03:12:04.549Z,97.34
2022-10-25T03:13:04.692Z,97.34
2022-10-25T03:14:05.463Z,97.44
2022-10-25T03:15:05.457Z,97.04
2022-10-25T03:16:05.118Z,97.60
2022-10-25T03:17:05.283Z,97.55
2022-10-25T03:18:05.430Z,97.44
2022-10-25T03:19:05.610Z,97.44
2022-10-25T03:20:05.743Z,97.44
2022-10-25T03:21:05.909Z,97.75
2022-10-25T03:22:06.054Z,97.69
2022-10-25T03:23:06.239Z,97.65
2022-10-25T03:24:06.376Z,97.24
2022-10-25T03:25:06.543Z,97.34
2022-10-25T03:26:06.701Z,96.53
2022-10-25T03:27:06.983Z,96.63
2022-10-25T03:28:06.999Z,96.58
2022-10-25T03:29:07.963Z,96.53
2022-10-25T03:30:07.357Z,96.53
2022-10-25T03:31:07.532Z,96.63
2022-10-25T03:32:07.698Z,96.53
2022-10-25T03:33:07.879Z,96.63
2022-10-25T03:34:08.045Z,97.04
2022-10-25T03:35:08.232Z,97.34
2022-10-25T03:36:08.400Z,97.65
2022-10-25T03:37:08.573Z,97.55
2022-10-25T03:38:08.738Z,97.75
2022-10-25T03:39:08.891Z,98.16
2022-10-25T03:40:09.028Z,98.05
2022-10-25T03:41:09.188Z,98.05
2022-10-25T03:42:09.963Z,98.16
2022-10-25T03:43:09.512Z,97.96
2022-10-25T03:44:09.978Z,98.05
2022-10-25T03:45:10.466Z,98.16
2022-10-25T03:46:10.064Z,98.20
2022-10-25T03:47:43.774Z,98.05
2022-10-25T03:48:10.442Z,98.46
2022-10-25T03:49:10.708Z,98.86
2022-10-25T03:50:10.839Z,98.46
2022-10-25T03:51:11.109Z,98.66
2022-10-25T03:52:11.268Z,98.86
2022-10-25T03:53:12.015Z,98.36
2022-10-25T03:54:11.624Z,98.71
2022-10-25T03:55:12.511Z,98.50
2022-10-25T03:56:12.507Z,99.02
2022-10-25T03:57:12.122Z,99.02
2022-10-25T03:58:13.008Z,98.91
2022-10-25T03:59:13.015Z,98.91
2022-10-25T04:00:12.637Z,98.61
2022-10-25T04:01:12.931Z,98.91
2022-10-25T04:02:13.060Z,98.91
2022-10-25T04:03:13.095Z,98.81
2022-10-25T04:04:13.234Z,98.91
2022-10-25T04:05:14.365Z,98.71
2022-10-25T04:06:14.511Z,98.81
2022-10-25T04:07:13.782Z,98.91
2022-10-25T04:08:14.026Z,98.61
2022-10-25T04:09:14.043Z,99.11
2022-10-25T04:10:15.013Z,99.02
2022-10-25T04:11:14.388Z,98.91
2022-10-25T04:12:14.540Z,98.71
2022-10-25T04:13:14.692Z,98.91
2022-10-25T04:14:14.833Z,99.17
2022-10-25T04:15:14.985Z,99.42
2022-10-25T04:16:18.313Z,99.02
2022-10-25T04:17:15.358Z,99.22
2022-10-25T04:18:16.010Z,99.52
2022-10-25T04:19:15.653Z,99.63
2022-10-25T04:20:15.817Z,99.52
2022-10-25T04:21:16.027Z,99.52
2022-10-25T04:22:16.175Z,99.93
2022-10-25T04:23:17.028Z,99.83
2022-10-25T04:24:16.523Z,99.99
2022-10-25T04:25:16.688Z,99.99
2022-10-25T04:26:16.866Z,99.99
2022-10-25T04:27:17.008Z,99.99
2022-10-25T04:28:17.137Z,99.99
2022-10-25T04:29:17.280Z,99.99
2022-10-25T04:30:17.399Z,99.99
2022-10-25T04:31:17.546Z,99.99
2022-10-25T04:33:17.804Z,99.99
2022-10-25T04:34:17.924Z,99.99
2022-10-25T04:35:19.018Z,99.99
2022-10-25T04:36:18.366Z,99.99
2022-10-25T04:37:18.505Z,99.99
2022-10-25T04:38:18.618Z,99.99
2022-10-25T04:39:18.718Z,99.99
2022-10-25T04:40:22.590Z,99.99
2022-10-25T04:41:21.152Z,99.99
2022-10-25T04:42:19.638Z,99.99
2022-10-25T04:43:19.479Z,99.99
2022-10-25T04:44:19.745Z,99.99
2022-10-25T04:45:19.853Z,99.99
2022-10-25T04:46:19.955Z,99.99
2022-10-25T04:47:20.195Z,99.99
2022-10-25T04:48:20.347Z,99.99
2022-10-25T04:49:20.478Z,99.99
2022-10-25T04:50:21.520Z,99.99
2022-10-25T04:51:21.528Z,99.99
2022-10-25T04:52:20.887Z,99.99
2022-10-25T04:53:21.063Z,99.99
2022-10-25T04:54:21.183Z,99.99
2022-10-25T04:55:21.346Z,99.99
2022-10-25T04:56:21.475Z,99.99
2022-10-25T04:57:21.608Z,99.99
2022-10-25T04:58:21.771Z,99.99
2022-10-25T04:59:21.894Z,99.99
2022-10-25T05:00:22.063Z,99.99
2022-10-25T05:01:22.242Z,99.99
2022-10-25T05:02:22.444Z,99.99
2022-10-25T05:03:22.662Z,99.99
2022-10-25T05:04:22.819Z,99.99
2022-10-25T05:05:22.990Z,99.99
2022-10-25T05:06:23.189Z,99.99
2022-10-25T05:07:23.329Z,99.99
2022-10-25T05:08:23.475Z,99.99
2022-10-25T05:09:23.650Z,99.99
2022-10-25T05:10:23.796Z,99.99
2022-10-25T05:11:23.980Z,99.99
2022-10-25T05:12:24.061Z,99.99
2022-10-25T05:13:25.029Z,99.99
2022-10-25T05:14:24.397Z,99.99
2022-10-25T05:15:25.546Z,99.99
2022-10-25T05:16:24.789Z,99.99
2022-10-25T05:17:24.919Z,99.99
2022-10-25T05:18:25.108Z,99.99
2022-10-25T05:19:25.266Z,99.99
2022-10-25T05:20:25.415Z,99.99
2022-10-25T05:22:25.805Z,99.99
2022-10-25T05:23:25.929Z,99.99
2022-10-25T05:24:26.070Z,99.99
2022-10-25T05:25:26.193Z,99.99
2022-10-25T05:26:26.329Z,99.99
2022-10-25T05:27:26.498Z,99.99
2022-10-25T05:28:26.617Z,99.99
2022-10-25T05:29:26.731Z,99.99
2022-10-25T05:30:26.859Z,99.99
2022-10-25T05:31:26.989Z,99.99
2022-10-25T05:32:27.138Z,99.99
2022-10-25T05:33:27.270Z,99.99
2022-10-25T05:34:28.036Z,99.99
2022-10-25T05:35:27.568Z,99.99
2022-10-25T05:36:27.733Z,99.99
2022-10-25T05:37:27.908Z,99.99
2022-10-25T05:38:28.071Z,99.99
2022-10-25T05:39:28.228Z,99.99
2022-10-25T05:40:29.036Z,99.99
2022-10-25T05:41:31.948Z,99.99
2022-10-25T05:42:29.792Z,99.99
2022-10-25T05:43:28.909Z,99.99
2022-10-25T05:44:29.047Z,99.99
2022-10-25T05:45:30.042Z,99.99
2022-10-25T05:46:29.414Z,99.99
2022-10-25T05:47:29.622Z,99.88
2022-10-25T05:48:29.761Z,99.99
2022-10-25T05:49:30.540Z,99.99
2022-10-25T05:50:30.205Z,99.99
2022-10-25T05:51:37.606Z,99.99
2022-10-25T05:52:32.448Z,99.99
2022-10-25T05:53:31.054Z,99.99
2022-10-25T05:54:31.553Z,99.77
2022-10-25T05:55:30.943Z,99.77
2022-10-25T05:56:31.089Z,99.88
2022-10-25T05:57:31.238Z,99.99
2022-10-25T05:58:31.552Z,99.99
2022-10-25T05:59:31.548Z,99.16
2022-10-25T06:00:32.621Z,99.47
2022-10-25T06:01:32.602Z,99.47
2022-10-25T06:02:32.090Z,99.37
2022-10-25T06:03:32.238Z,99.06
2022-10-25T06:04:32.375Z,99.31
2022-10-25T06:05:32.556Z,98.86
2022-10-25T06:06:33.543Z,99.27
2022-10-25T06:07:33.079Z,99.67
2022-10-25T06:08:33.096Z,99.77
2022-10-25T06:09:33.226Z,99.37
2022-10-25T06:10:34.357Z,99.67
2022-10-25T06:11:33.473Z,99.77
2022-10-25T06:12:34.055Z,99.57
2022-10-25T06:13:33.823Z,99.99
2022-10-25T06:14:33.964Z,99.77
2022-10-25T06:15:34.094Z,99.67
2022-10-25T06:16:35.057Z,99.67
2022-10-25T06:17:34.446Z,99.67
2022-10-25T06:18:35.554Z,99.47
2022-10-25T06:19:35.061Z,99.27
2022-10-25T06:20:35.032Z,99.99
2022-10-25T06:21:35.086Z,99.99
2022-10-25T06:22:36.054Z,99.47
2022-10-25T06:23:36.058Z,99.57
2022-10-25T06:24:35.578Z,99.57
2022-10-25T06:25:35.742Z,99.98
2022-10-25T06:26:36.576Z,99.88
2022-10-25T06:27:37.063Z,99.57
2022-10-25T06:28:37.053Z,99.67
2022-10-25T06:29:37.058Z,99.57
2022-10-25T06:30:36.811Z,99.47
2022-10-25T06:31:36.960Z,99.67
2022-10-25T06:32:37.062Z,99.77
2022-10-25T06:33:37.182Z,99.42
2022-10-25T06:34:37.338Z,99.77
2022-10-25T06:35:37.461Z,99.73
2022-10-25T06:36:37.569Z,99.52
2022-10-25T06:37:37.790Z,99.88
2022-10-25T06:38:38.558Z,99.77
2022-10-25T06:39:38.224Z,99.83
2022-10-25T06:40:38.356Z,99.77
2022-10-25T06:41:38.501Z,99.57
2022-10-25T06:42:39.555Z,99.73
2022-10-25T06:43:39.560Z,99.67
2022-10-25T06:44:39.577Z,99.77
2022-10-25T06:45:39.075Z,99.16
2022-10-25T06:47:11.533Z,99.67
2022-10-25T06:47:42.054Z,99.47
2022-10-25T06:48:40.930Z,99.42
2022-10-25T06:49:40.069Z,99.27
2022-10-25T06:50:39.933Z,99.37
2022-10-25T06:51:40.565Z,99.22
2022-10-25T06:52:40.286Z,99.42
2022-10-25T06:53:41.065Z,99.11
2022-10-25T06:54:40.522Z,98.96
2022-10-25T06:55:40.665Z,99.22
2022-10-25T06:56:40.765Z,99.11
2022-10-25T06:57:40.886Z,99.42
2022-10-25T06:58:41.010Z,98.91
2022-10-25T06:59:41.261Z,99.16
2022-10-25T07:00:43.717Z,99.52
2022-10-25T07:01:42.607Z,99.47
2022-10-25T07:02:41.772Z,99.52
2022-10-25T07:03:41.919Z,99.02
2022-10-25T07:04:42.069Z,99.16
2022-10-25T07:05:43.148Z,99.37
2022-10-25T07:06:43.062Z,99.22
2022-10-25T07:07:42.519Z,99.22
2022-10-25T07:08:42.755Z,99.32
2022-10-25T07:09:42.899Z,99.22
2022-10-25T07:10:43.561Z,99.42
2022-10-25T07:11:43.162Z,99.47
2022-10-25T07:12:43.299Z,99.02
2022-10-25T07:13:43.394Z,99.22
2022-10-25T07:14:43.560Z,98.91
2022-10-25T07:15:43.682Z,98.71
2022-10-25T07:16:43.801Z,98.81
2022-10-25T07:17:44.141Z,98.61
2022-10-25T07:18:44.155Z,99.32
2022-10-25T07:19:44.296Z,99.11
2022-10-25T07:20:44.419Z,99.11
2022-10-25T07:21:44.597Z,98.81
2022-10-25T07:22:45.596Z,99.52
2022-10-25T07:23:45.571Z,99.52
2022-10-25T07:24:46.062Z,99.42
2022-10-25T07:25:46.067Z,99.42
2022-10-25T07:26:45.584Z,99.11
2022-10-25T07:27:45.973Z,99.73
2022-10-25T07:28:45.739Z,99.73
2022-10-25T07:29:45.893Z,99.58
2022-10-25T07:30:46.062Z,98.82
2022-10-25T07:31:46.216Z,98.62
2022-10-25T07:32:46.360Z,97.62
2022-10-25T07:33:46.514Z,96.36
2022-10-25T07:34:46.746Z,92.67
2022-10-25T07:35:58.881Z,92.16
2022-10-25T07:36:48.075Z,92.51
2022-10-25T07:37:48.578Z,93.32
2022-10-25T07:38:47.310Z,92.12
2022-10-25T07:39:48.073Z,91.41
2022-10-25T07:40:47.567Z,90.56
2022-10-25T07:41:47.728Z,90.95
2022-10-25T07:42:48.574Z,91.50
2022-10-25T07:43:48.576Z,92.25
2022-10-25T07:44:48.230Z,92.90
2022-10-25T07:45:48.366Z,94.12
2022-10-25T07:46:48.517Z,94.67
2022-10-25T07:47:49.050Z,94.92
2022-10-25T07:48:49.573Z,95.42
2022-10-25T07:49:49.092Z,96.44
2022-10-25T07:50:49.257Z,95.78
2022-10-25T07:51:49.414Z,96.23
2022-10-25T07:52:49.565Z,96.34
2022-10-25T07:53:49.737Z,96.59
2022-10-25T07:54:49.874Z,96.38
2022-10-25T07:55:50.068Z,96.48
2022-10-25T07:56:50.251Z,96.59
2022-10-25T07:57:50.363Z,96.53
2022-10-25T07:58:50.523Z,97.30
2022-10-25T07:59:51.578Z,97.30
2022-10-25T08:00:50.822Z,97.75
2022-10-25T08:01:51.141Z,97.24
2022-10-25T08:02:51.163Z,97.75
2022-10-25T08:03:52.150Z,97.44
2022-10-25T08:04:54.206Z,97.04
2022-10-25T08:05:51.657Z,97.60
2022-10-25T08:06:51.813Z,96.54
2022-10-25T08:07:51.991Z,96.34
2022-10-25T08:08:52.138Z,95.32
2022-10-25T08:09:52.280Z,95.38
2022-10-25T08:10:52.446Z,95.58
2022-10-25T08:11:53.088Z,94.83
2022-10-25T08:12:52.755Z,93.83
2022-10-25T08:13:52.889Z,92.18
2022-10-25T08:14:53.037Z,89.61
2022-10-25T08:15:54.085Z,88.45
2022-10-25T08:16:53.596Z,87.32
2022-10-25T08:17:53.487Z,84.27
2022-10-25T08:18:53.642Z,83.16
2022-10-25T08:19:53.791Z,82.21
2022-10-25T08:21:02.309Z,81.57
2022-10-25T08:21:57.082Z,80.26
2022-10-25T08:22:55.084Z,79.66
2022-10-25T08:23:54.580Z,79.86
2022-10-25T08:24:55.585Z,81.85
2022-10-25T08:25:55.593Z,81.68
2022-10-25T08:26:55.108Z,83.34
2022-10-25T08:27:55.261Z,83.62
2022-10-25T08:28:55.397Z,84.27
2022-10-25T08:29:56.091Z,85.52
2022-10-25T08:30:56.590Z,86.57
2022-10-25T08:31:55.943Z,86.71
2022-10-25T08:32:58.650Z,87.46
2022-10-25T08:33:57.622Z,88.17
2022-10-25T08:34:57.086Z,86.83
2022-10-25T08:35:56.703Z,86.10
2022-10-25T08:36:56.866Z,85.82
2022-10-25T08:37:56.994Z,82.65
2022-10-25T08:38:57.125Z,82.65
2022-10-25T08:39:57.369Z,82.48
2022-10-25T08:40:58.099Z,82.18
2022-10-25T08:41:57.728Z,81.73
2022-10-25T08:42:57.865Z,80.91
2022-10-25T08:43:58.004Z,78.69
2022-10-25T08:44:58.153Z,74.30
2022-10-25T08:45:58.291Z,73.87
2022-10-25T08:46:58.451Z,76.12
2022-10-25T08:47:58.578Z,76.68
2022-10-25T08:48:58.736Z,75.24
2022-10-25T08:49:59.595Z,73.03
2022-10-25T08:50:59.081Z,74.85
2022-10-25T08:51:59.613Z,76.70
2022-10-25T08:52:59.362Z,77.91
2022-10-25T08:53:59.503Z,78.94
2022-10-25T08:55:03.367Z,78.16
2022-10-25T08:56:17.150Z,76.48
2022-10-25T08:57:15.015Z,76.45
2022-10-25T08:58:02.292Z,74.51
2022-10-25T08:59:00.405Z,75.10
2022-10-25T09:00:01.103Z,73.70
2022-10-25T09:01:00.786Z,73.78
2022-10-25T09:02:01.085Z,76.06
2022-10-25T09:03:02.157Z,78.65
2022-10-25T09:04:01.322Z,79.60
2022-10-25T09:05:01.484Z,81.15
2022-10-25T09:06:01.666Z,81.52
2022-10-25T09:07:02.631Z,82.61
2022-10-25T09:08:02.036Z,83.32
2022-10-25T09:09:03.111Z,84.53
2022-10-25T09:10:02.366Z,85.17
2022-10-25T09:11:03.102Z,85.78
2022-10-25T09:12:03.604Z,85.52
2022-10-25T09:13:06.958Z,86.43
2022-10-25T09:14:04.012Z,86.47
2022-10-25T09:15:03.131Z,86.39
2022-10-25T09:16:04.102Z,86.00
2022-10-25T09:17:04.103Z,84.19
2022-10-25T09:18:03.623Z,84.05
2022-10-25T09:19:03.750Z,83.40
2022-10-25T09:20:04.604Z,83.06
2022-10-25T09:21:04.103Z,82.11
2022-10-25T09:22:05.112Z,81.55
2022-10-25T09:23:04.618Z,81.41
2022-10-25T09:24:05.130Z,80.58
2022-10-25T09:25:04.735Z,81.59
2022-10-25T09:26:04.866Z,81.50
2022-10-25T09:27:05.037Z,83.05
2022-10-25T09:28:05.144Z,84.37
2022-10-25T09:29:05.315Z,84.47
2022-10-25T09:30:07.454Z,84.17
2022-10-25T09:31:05.665Z,83.72
2022-10-25T09:32:05.839Z,82.53
2022-10-25T09:33:06.047Z,83.12
2022-10-25T09:34:06.614Z,80.49
2022-10-25T09:35:06.245Z,77.80
2022-10-25T09:36:06.376Z,78.27
2022-10-25T09:37:07.107Z,75.05
2022-10-25T09:38:07.124Z,76.19
2022-10-25T09:39:06.863Z,76.63
2022-10-25T09:40:07.022Z,75.72
2022-10-25T09:41:07.153Z,76.40
2022-10-25T09:42:07.287Z,78.07
2022-10-25T09:43:07.770Z,77.77
2022-10-25T09:44:07.695Z,79.02
2022-10-25T09:45:08.137Z,79.56
2022-10-25T09:46:08.012Z,78.85
2022-10-25T09:47:08.142Z,79.49
2022-10-25T09:48:08.304Z,79.90
2022-10-25T09:49:08.437Z,80.20
2022-10-25T09:50:09.596Z,79.83
2022-10-25T09:51:08.694Z,80.98
2022-10-25T09:52:08.816Z,80.62
2022-10-25T09:53:08.963Z,81.36
2022-10-25T09:54:09.141Z,81.60
2022-10-25T09:55:09.627Z,81.80
2022-10-25T09:56:09.507Z,81.70
2022-10-25T09:57:09.654Z,82.51
2022-10-25T09:58:09.802Z,82.17
2022-10-25T09:59:09.946Z,82.71
2022-10-25T10:00:10.144Z,81.46
2022-10-25T10:01:11.183Z,81.76
2022-10-25T10:02:10.724Z,83.58
2022-10-25T10:03:11.624Z,83.38
2022-10-25T10:04:11.851Z,83.40
2022-10-25T10:05:11.622Z,82.19
2022-10-25T10:06:11.245Z,81.38
2022-10-25T10:07:11.406Z,81.48
2022-10-25T10:08:11.548Z,80.68
2022-10-25T10:09:11.689Z,80.07
2022-10-25T10:10:11.820Z,81.35
2022-10-25T10:11:11.962Z,81.55
2022-10-25T10:12:12.120Z,81.45
2022-10-25T10:13:12.275Z,81.65
2022-10-25T10:14:12.397Z,79.47
2022-10-25T10:15:12.523Z,80.24
2022-10-25T10:16:12.662Z,79.53
2022-10-25T10:17:12.766Z,79.23
2022-10-25T10:18:13.139Z,79.93
2022-10-25T10:19:13.151Z,78.32
2022-10-25T10:20:13.290Z,78.52
2022-10-25T10:21:13.641Z,78.32
2022-10-25T10:22:13.657Z,79.87
2022-10-25T10:23:14.632Z,80.07
2022-10-25T10:24:14.629Z,80.54
2022-10-25T10:25:15.132Z,79.52
2022-10-25T10:26:14.648Z,76.50
2022-10-25T10:27:14.642Z,76.94
2022-10-25T10:28:14.764Z,77.44
2022-10-25T10:29:17.901Z,76.64
2022-10-25T10:30:15.097Z,77.81
2022-10-25T10:31:15.243Z,76.74
2022-10-25T10:32:15.392Z,76.91
2022-10-25T10:33:15.515Z,78.36
2022-10-25T10:34:15.675Z,78.59
2022-10-25T10:35:15.811Z,78.50
2022-10-25T10:36:15.962Z,79.30
2022-10-25T10:37:16.101Z,80.85
2022-10-25T10:38:16.249Z,80.55
2022-10-25T10:39:16.389Z,81.16
2022-10-25T10:40:16.528Z,83.58
2022-10-25T10:41:17.633Z,82.47
2022-10-25T10:42:16.871Z,80.76
2022-10-25T10:43:17.044Z,81.22
2022-10-25T10:44:17.199Z,80.62
2022-10-25T10:45:17.348Z,80.47
2022-10-25T10:46:18.140Z,80.88
2022-10-25T10:47:17.640Z,79.91
2022-10-25T10:48:17.820Z,79.50
2022-10-25T10:49:17.947Z,81.02
2022-10-25T10:50:18.102Z,80.31
2022-10-25T10:51:43.040Z,79.71
2022-10-25T10:52:20.531Z,80.82
2022-10-25T10:53:18.644Z,81.26
2022-10-25T10:54:18.781Z,79.50
2022-10-25T10:55:19.155Z,80.01
2022-10-25T10:56:19.150Z,81.16
2022-10-25T10:57:19.275Z,81.82
2022-10-25T10:58:19.422Z,81.62
2022-10-25T10:59:19.559Z,80.51
2022-10-25T11:00:19.699Z,80.94
2022-10-25T11:01:19.938Z,79.93
2022-10-25T11:02:20.365Z,79.86
2022-10-25T11:03:20.217Z,78.11
2022-10-25T11:04:21.968Z,76.90
2022-10-25T11:05:20.657Z,78.17
2022-10-25T11:06:21.646Z,76.60
2022-10-25T11:07:20.903Z,76.40
2022-10-25T11:08:21.646Z,75.19
2022-10-25T11:09:21.280Z,77.00
2022-10-25T11:10:21.661Z,78.17
2022-10-25T11:11:21.556Z,78.38
2022-10-25T11:12:21.737Z,76.76
2022-10-25T11:13:22.926Z,76.67
2022-10-25T11:14:22.079Z,77.87
2022-10-25T11:15:23.152Z,77.17
2022-10-25T11:16:24.414Z,74.65
2022-10-25T11:17:22.559Z,76.43
2022-10-25T11:18:23.659Z,77.88
2022-10-25T11:19:22.919Z,77.31
2022-10-25T11:20:23.059Z,78.02
2022-10-25T11:21:23.214Z,78.52
2022-10-25T11:22:23.357Z,79.23
2022-10-25T11:23:24.247Z,78.26
2022-10-25T11:24:23.727Z,79.87
2022-10-25T11:25:23.844Z,80.01
2022-10-25T11:26:24.652Z,79.81
2022-10-25T11:27:24.277Z,81.08
2022-10-25T11:28:24.478Z,80.38
2022-10-25T11:29:24.710Z,78.92
2022-10-25T11:30:24.946Z,79.03
2022-10-25T11:31:25.094Z,78.42
2022-10-25T11:32:25.725Z,76.97
2022-10-25T11:33:25.675Z,77.21
2022-10-25T11:34:26.160Z,79.03
2022-10-25T11:35:26.176Z,79.49
2022-10-25T11:36:26.657Z,78.08
2022-10-25T11:37:26.135Z,78.05
2022-10-25T11:38:26.762Z,78.11
2022-10-25T11:39:26.550Z,78.31
2022-10-25T11:40:26.657Z,77.24
2022-10-25T11:41:27.662Z,77.08
2022-10-25T11:42:26.997Z,78.12
2022-10-25T11:43:27.143Z,78.46
2022-10-25T11:44:27.286Z,79.30
2022-10-25T11:45:27.433Z,79.91
2022-10-25T11:46:27.573Z,79.94
2022-10-25T11:47:28.662Z,79.85
2022-10-25T11:48:27.925Z,81.22
2022-10-25T11:49:28.047Z,80.58
2022-10-25T11:50:28.202Z,79.77
2022-10-25T11:51:28.349Z,79.73
2022-10-25T11:52:29.162Z,79.09
2022-10-25T11:53:28.758Z,79.56
2022-10-25T11:54:28.772Z,78.65
2022-10-25T11:55:28.903Z,77.40
2022-10-25T11:56:29.065Z,76.54
2022-10-25T11:57:29.227Z,76.31
2022-10-25T11:58:29.409Z,77.75
2022-10-25T11:59:30.539Z,79.06
2022-10-25T12:00:29.797Z,79.16
2022-10-25T12:01:29.967Z,78.43
2022-10-25T12:02:30.291Z,79.04
2022-10-25T12:03:30.353Z,80.15
2022-10-25T12:04:31.941Z,81.10
2022-10-25T12:05:30.639Z,80.93
2022-10-25T12:06:31.180Z,81.34
2022-10-25T12:07:30.922Z,81.07
2022-10-25T12:08:31.089Z,81.84
2022-10-25T12:09:31.319Z,81.44
2022-10-25T12:10:32.305Z,81.34
2022-10-25T12:11:31.675Z,81.48
2022-10-25T12:12:31.874Z,82.24
2022-10-25T12:13:32.671Z,81.30
2022-10-25T12:14:32.236Z,80.59
2022-10-25T12:15:32.371Z,79.85
2022-10-25T12:16:32.538Z,79.14
2022-10-25T12:17:32.719Z,79.85
2022-10-25T12:18:32.854Z,79.81
2022-10-25T12:19:33.056Z,79.16
2022-10-25T12:21:33.482Z,79.57
2022-10-25T12:22:34.683Z,78.42
2022-10-25T12:23:33.865Z,76.87
2022-10-25T12:24:34.111Z,75.96
2022-10-25T12:25:34.266Z,76.77
2022-10-25T12:26:35.176Z,76.14
2022-10-25T12:27:34.529Z,77.04
2022-10-25T12:28:34.674Z,76.54
2022-10-25T12:29:34.809Z,75.76
2022-10-25T12:30:34.989Z,77.24
2022-10-25T12:31:35.120Z,76.97
2022-10-25T12:32:35.259Z,75.40
2022-10-25T12:33:36.179Z,76.24
2022-10-25T12:34:36.183Z,76.44
2022-10-25T12:35:36.197Z,77.92
2022-10-25T12:36:35.812Z,76.51
2022-10-25T12:37:36.675Z,76.17
2022-10-25T12:38:36.173Z,76.97
2022-10-25T12:39:36.782Z,73.95
2022-10-25T12:40:39.031Z,75.36
2022-10-25T12:41:37.681Z,76.20
2022-10-25T12:42:36.910Z,76.57
2022-10-25T12:43:37.049Z,76.47
2022-10-25T12:44:37.173Z,75.23
2022-10-25T12:45:37.318Z,76.04
2022-10-25T12:46:37.488Z,77.39
2022-10-25T12:47:37.627Z,77.42
2022-10-25T12:48:37.768Z,78.37
2022-10-25T12:49:37.897Z,79.79
2022-10-25T12:50:38.002Z,80.08
2022-10-25T12:51:38.193Z,80.39
2022-10-25T12:52:39.181Z,78.77
2022-10-25T12:53:38.526Z,79.28
2022-10-25T12:54:39.184Z,80.59
2022-10-25T12:55:39.774Z,80.90
2022-10-25T12:56:39.025Z,79.71
2022-10-25T12:57:39.685Z,79.61
2022-10-25T12:58:40.182Z,79.67